Timeline UpdatesTrip UpdatesNews PostsPvt PostsTravel TipsAdmin PostsConv PostsFollowed PostsChat RequestsBlog PostsPNR Posts

Disclaimer
Search
 
 
Thu Apr 24, 2014 09:28:45 ISTHomeTrainsΣChainsAtlasPNRForumGalleryNewsFAQTripsMembersLoginFeedback
No Recent News for this Train
Other Trains in the News **new
Latest...
⇐ Return Journey: Train# 55022

55021/Samastipur Siwan InterCity Fast Passenger (UnReserved)

Nov 15 2013 (8:33PM)
Change Departure Station:
Change Arrival Station:
Post a Train Travel TipPost a Train Travel Tip **new
Post a Comment/Question/Picture/VideoPost a Comment/Question/Picture/Video
Pantry/Catering
???
RSA - Rake Sharing
Rake/Coach Composition
Loco
News    PNR    Forum    Time-Table    Availability    Fare Chart    Map    Arr/Dep History    Trips    Gallery    ΣChains    X/O    Timeline    
Travel Time: 3h 28m    17 halts    Distance: 106 km    Avg Speed: 30 km/hr
Type: Passenger
Zone: NER/North Eastern
Departs @ 16:00 (Avg 43m late)
Platform# ???
SMTWTFS
Samastipur Junction/SPJ 
Arrives @ 19:28 (Avg 2h 6m late)
Platform# ???
SMTWTFS
Hajipur Junction/HJP 

17 halts. 18 intermediate Stations between Samastipur Junction and Hajipur Junction

Show ALL intermediate Stations  Show Old Time-Table

#CodeStation NameX/OArrivesAvgDepartsAvgHaltPFDay#KmSpeedElevZoneAddress
1SPJ»Samastipur Junction (9)»  -16:00+43--10.04255mECRSamastipur, Bihar
2KPGMKarpurigram (3)X  16:09+1:1116:10+1:141m--16.34951mECRState Highway 49, Bihar
3KRBPKhudiram B PusaX  16:19+1:1616:20+1:241m--113.64052mECRDistt. Samastipur, Bihar
4DUBHDubaha  16:31+1:2216:32+1:241m--120.94055mECRDubha Station, Bihar
5DOLDholi (2)X  16:41+1:2416:42+1:291m--127.04652mECRDistt. Muzaffarpur, Bihar
6SIHOSihoX  16:51+1:3016:52+1:331m--133.85253mECRNational Highway 28, Bihar
7SLTSilaut  17:01+1:3117:02+1:391m--141.63857mECRMuzaffarpur, Bihar
8NRPANarayanpur Anant (3)X  17:11+1:4017:12+1:461m--147.32256mECRMuzaffarpur, Bihar
9MFPMuzaffarpur Junction (6)X  17:25+1:0317:35+1:0510m4152.13657mECRMuzaffarpur, Bihar
10RDRam Dayalu Nagar (3)X  17:45+1:5617:46+2:061m--158.24256mECRMuzaffarpur, Bihar
11TURTurki (2)  17:57+2:0817:58+2:141m--165.94855mECRTurki, Bihar
12KHIKurhani (2)XO  18:06+2:1518:07+2:241m--172.21556mECRKurhani, Bihar
13GRLGoraul (2)  18:30+2:1318:31+2:261m2178.01757mECRNational Highway 77, Bihar
14BNPTBenipatti Pirapur (1)X  18:38+2:2618:39+2:261m1179.95555mECRGhojaul Rd, Bihar
15BNRBhagwanpur (3)  18:46+2:2618:47+2:391m--186.32860mECRBhagwanpur, Bihar
16BTHLBithauli (1)  18:57+2:3818:58+2:381m1190.95358mECRVaishali, Bihar
17SAISarai (1)X  19:03+2:3819:04+2:511m1195.32654mECRVaishali, Bihar
18GWHGhoshawar (1)  19:18+2:4619:19+2:461m11101.43054mECRDaulatpur Deoria urf Daulatpur, Bihar
19HJP•Hajipur Junction (3)•  19:28+2:0619:33+2:195m--1105.93355mECR06224-272230, Bihar
20SEESonpur Junction (4)X  19:43+2:5919:48+2:585m--1111.44456mECRSaran, Bihar
21PMUParmanandpur (2)  19:57+3:0519:58+3:061m--1118.14756mECRNational Highway 19, Bihar
22NYONayagaon (2)  20:04+3:0720:05+3:091m--1122.85153mECRNayagaon Sarai, Bihar
23STLRSitalpur (2)X  20:14+3:0320:15+3:061m--1130.41957mECRSitalpur, Bihar
24DGADighwara (2)  20:28+3:0720:29+3:091m--1134.63560mECR06158-281240, Bihar
25ATNRAwatarnagar (2)  20:39+3:0920:40+3:091m--1140.51456mECRNH 19, Bihar
26PPDAPanchpatia Deoria Halt (1)O  20:49+2:5320:50+2:531m11142.61257mECRNH 19, Bihar
27BAGLBaragopalX  21:04+2:5321:05+2:561m--1145.44157mECRSH 46, Bihar
28DRIDumri Juara (2)  21:11+2:5921:12+2:591m--1149.57157mECRSaran, Bihar
29GJHGoldinganj (2)X  21:16+2:5221:17+3:091m--1154.34958mECRChapra Patna Highway, Bihar
30CIChhapra Kacheri (3)  21:28+3:2021:30+3:252m--1163.32557mNERChhapra, Bihar
31CPRChhapra Junction (6)  21:35+2:4621:45+2:5010m--1165.43758mNERDistt: Saran, Bihar
32TKVRTeknewas (2)  21:52+3:3821:53+3:401m--1169.86358mNERSaran, Bihar
33KPSKopa Samhota (2)  21:59+3:4222:00+3:451m--1176.16569mNERKopa Samhota Station Rd, Bihar
34DDPDaudpur (2)  22:08+3:4622:09+3:341m--1184.76559mNERChhapra, Bihar
35EKMAEkma (3)  22:17+3:3622:18+3:391m--1193.36464mNERSaran, Bihar
36MHRNMahendranath  22:23+3:4022:24+3:401m--1198.73063mNERMahendrana, Uttar Pradesh
37CWChainwa (2)  22:28+3:4022:29+3:421m--1200.73863mNERSiwan, Bihar
38DDADuraundha Junction (3)  22:42+3:5222:43+3:431m--1208.94764mNERDistt: Siwan, Bihar
39PCKPachrukhi (2)  22:55+3:5422:56+3:441m--1218.33667mNERPachrukhi, Bihar
40SVSiwan Junction (4)  23:10+3:03---1226.6-70mNERSiwan, Bihar
Scroll to Top
Scroll to Bottom